SEQMSEGU

Guest
Details From SEQM - Quito - Mariscal Sucre Intl
To SEGU - Guayauqiil - Simon Bolivar Intl
Flight Number -
Tags generated
Created
Modified
Stats Distance 153 nm / 283 km
Max Altitude 14,400 ft / 4,389 m
Waypoints 5
Social Downloads 2
Likes 0
Share VATSIM

Download

Looking for another format? Having issues loading an existing format? Contact us
Advertisement - Login to hide

Notes

Basic altitude profile: - Ascent Rate: 2500ft/min - Ascent Speed: 250kts - Cruise Altitude: 35000ft - Cruise Speed: 420kts - Descent Rate: 1500ft/min - Descent Speed: 250kts Options: - Use NATs: no - Use PACOTS: no - Use low airways: yes - Use high airways: yes

Route

SEQM MORAS W12 GYV SEGU

ID Type Via Altitude Latitude Longitude Leg Dist Tot Dist Heading (true) Name
O SEQM APT - 0 ft / 0 m -0.12409˚ -78.35438˚ - 0 nm - Quito - Mariscal Sucre Intl
MORAS FIX - 14,400 ft / 4,389 m -1.18833˚ -79.17833˚ 80 nm 80 nm 218° / 218° -
CARTE FIX W12 (AWY-LO) 10,500 ft / 3,200 m -1.59056˚ -79.47222˚ 29 nm 110 nm 216° / 216° -
GYV VOR W12 (AWY-LO) 2,500 ft / 762 m -2.12833˚ -79.86694˚ 40 nm 150 nm 216° / 216° GUAYAQUIL VOR-DME
O SEGU APT - 0 ft / 0 m -2.15742˚ -79.88356˚ 2 nm 152 nm 210° / 210° Guayauqiil - Simon Bolivar Intl

Altitude Profile

Advertisement - Login to hide

SEQM

Details ICAO SEQM
Name Quito - Mariscal Sucre Intl
Region Equador
Timezone America/Guayaquil (UTC-5.0)
Stats Elevation 7,841 ft / 2,390 m (AMSL)
Location -0.124089° -78.354381°
Runways 1
Magnetic Variation 3.596° W

METAR

SEQM 172300Z 01011KT 9999 FEW030 17/13 Q1022 NOSIG RMK A3018

Decode

TAF

Not found

Departure Runways

ID Width Length Bearing (true) Bearing (mag) Surface Threshold Offset Overrun Length
18 171 ft / 52 m 13,524 ft / 4,122 m 177.61° 181.21° Asphalt 0 ft / 0 m 177 ft / 54 m
36 171 ft / 52 m 13,524 ft / 4,122 m 357.61° 1.21° Asphalt 0 ft / 0 m 184 ft / 56 m

SEGU

Details ICAO SEGU (GYE)
Name Guayauqiil - Simon Bolivar Intl
Region Equador
Timezone America/Guayaquil (UTC-5.0)
Stats Elevation 19 ft / 6 m (AMSL)
Location -2.157419° -79.883559°
Runways 1
Magnetic Variation 2.152° W

METAR

SEGU 172300Z 21008KT 9999 BKN026 SCT100 30/21 Q1007 NOSIG RMK A2975

Decode

TAF

Not found

Destination Runways

ID Width Length Bearing (true) Bearing (mag) Surface Threshold Offset Overrun Length
03 151 ft / 46 m 9,184 ft / 2,799 m 30.43° 32.58° Asphalt 338 ft / 103 m 280 ft / 85 m
21 151 ft / 46 m 9,184 ft / 2,799 m 210.43° 212.58° Asphalt 810 ft / 247 m 230 ft / 70 m

Approach Navaids

Runway Type Ident Frequency Range Bearing (true) Bearing (mag) Slope Elevation
21 Localiser ILG 110.30 MHz 18 nm / 33 km 210.13° 212.28° - 17 ft / 5 m (AMSL)
21 Glidescope ILG 110.30 MHz 10 nm / 19 km 210.43° 212.58° 3.00° 17 ft / 5 m (AMSL)
21 DME ILG 110.30 MHz 18 nm / 33 km - - - 19 ft / 6 m (AMSL)

Popular Alternatives